sensor_id;sensor_type;location;lat;lon;timestamp;temperature;humidity
31661;DHT22;18267;52.234;7.444;2023-10-09T00:01:06;13.80;99.90
31661;DHT22;18267;52.234;7.444;2023-10-09T00:03:44;13.70;99.90
31661;DHT22;18267;52.234;7.444;2023-10-09T00:06:10;13.70;99.90
31661;DHT22;18267;52.234;7.444;2023-10-09T00:08:39;13.70;99.90
31661;DHT22;18267;52.234;7.444;2023-10-09T00:11:09;13.70;99.90
31661;DHT22;18267;52.234;7.444;2023-10-09T00:13:45;13.60;99.90
31661;DHT22;18267;52.234;7.444;2023-10-09T00:16:21;13.50;99.90
31661;DHT22;18267;52.234;7.444;2023-10-09T00:19:04;13.60;99.90
31661;DHT22;18267;52.234;7.444;2023-10-09T00:21:59;13.50;99.90
31661;DHT22;18267;52.234;7.444;2023-10-09T00:24:36;13.40;99.90
31661;DHT22;18267;52.234;7.444;2023-10-09T00:27:06;13.40;99.90
31661;DHT22;18267;52.234;7.444;2023-10-09T00:29:40;13.40;99.90
31661;DHT22;18267;52.234;7.444;2023-10-09T00:32:13;13.40;99.90
31661;DHT22;18267;52.234;7.444;2023-10-09T00:34:41;13.40;99.90
31661;DHT22;18267;52.234;7.444;2023-10-09T00:37:08;13.50;99.90
31661;DHT22;18267;52.234;7.444;2023-10-09T00:39:56;13.60;99.90
31661;DHT22;18267;52.234;7.444;2023-10-09T00:42:23;13.50;99.90
31661;DHT22;18267;52.234;7.444;2023-10-09T00:45:00;13.60;99.90
31661;DHT22;18267;52.234;7.444;2023-10-09T00:47:31;13.70;99.90
31661;DHT22;18267;52.234;7.444;2023-10-09T00:50:17;13.70;99.90
31661;DHT22;18267;52.234;7.444;2023-10-09T00:52:48;13.60;99.90
31661;DHT22;18267;52.234;7.444;2023-10-09T00:55:18;13.50;99.90
31661;DHT22;18267;52.234;7.444;2023-10-09T00:57:53;13.60;99.90
31661;DHT22;18267;52.234;7.444;2023-10-09T01:00:24;13.60;99.90
31661;DHT22;18267;52.234;7.444;2023-10-09T01:03:15;13.60;99.90
31661;DHT22;18267;52.234;7.444;2023-10-09T01:05:41;13.60;99.90
31661;DHT22;18267;52.234;7.444;2023-10-09T01:08:19;13.70;99.90
31661;DHT22;18267;52.234;7.444;2023-10-09T01:10:54;13.80;99.90
31661;DHT22;18267;52.234;7.444;2023-10-09T01:13:25;13.80;99.90
31661;DHT22;18267;52.234;7.444;2023-10-09T01:16:07;13.80;99.90
31661;DHT22;18267;52.234;7.444;2023-10-09T01:18:47;13.70;99.90
31661;DHT22;18267;52.234;7.444;2023-10-09T01:21:16;13.70;99.90
31661;DHT22;18267;52.234;7.444;2023-10-09T01:23:44;13.70;99.90
31661;DHT22;18267;52.234;7.444;2023-10-09T01:26:34;13.80;99.90
31661;DHT22;18267;52.234;7.444;2023-10-09T01:29:11;13.90;99.90
31661;DHT22;18267;52.234;7.444;2023-10-09T01:31:40;13.90;99.90
31661;DHT22;18267;52.234;7.444;2023-10-09T01:34:12;13.90;99.90
31661;DHT22;18267;52.234;7.444;2023-10-09T01:36:38;14.00;99.90
31661;DHT22;18267;52.234;7.444;2023-10-09T01:39:05;14.00;99.90
31661;DHT22;18267;52.234;7.444;2023-10-09T01:41:51;14.00;99.90
31661;DHT22;18267;52.234;7.444;2023-10-09T01:44:27;14.00;99.90
31661;DHT22;18267;52.234;7.444;2023-10-09T01:46:55;14.10;99.90
31661;DHT22;18267;52.234;7.444;2023-10-09T01:49:23;14.20;99.90
31661;DHT22;18267;52.234;7.444;2023-10-09T01:51:56;14.20;99.90
31661;DHT22;18267;52.234;7.444;2023-10-09T01:54:25;14.20;99.90
31661;DHT22;18267;52.234;7.444;2023-10-09T01:57:03;14.20;99.90
31661;DHT22;18267;52.234;7.444;2023-10-09T01:59:32;14.20;99.90
31661;DHT22;18267;52.234;7.444;2023-10-09T02:01:58;14.20;99.90
31661;DHT22;18267;52.234;7.444;2023-10-09T02:04:37;14.20;99.90
31661;DHT22;18267;52.234;7.444;2023-10-09T02:07:05;14.20;99.90
31661;DHT22;18267;52.234;7.444;2023-10-09T02:09:33;14.20;99.90
31661;DHT22;18267;52.234;7.444;2023-10-09T02:12:00;14.20;99.90
31661;DHT22;18267;52.234;7.444;2023-10-09T02:14:26;14.30;99.90
31661;DHT22;18267;52.234;7.444;2023-10-09T02:16:52;14.20;99.90
31661;DHT22;18267;52.234;7.444;2023-10-09T02:19:35;14.30;99.90
31661;DHT22;18267;52.234;7.444;2023-10-09T02:22:04;14.30;99.90
31661;DHT22;18267;52.234;7.444;2023-10-09T02:24:40;14.40;99.90
31661;DHT22;18267;52.234;7.444;2023-10-09T02:27:16;14.40;99.90
31661;DHT22;18267;52.234;7.444;2023-10-09T02:30:03;14.40;99.90
31661;DHT22;18267;52.234;7.444;2023-10-09T02:32:35;14.40;99.90
31661;DHT22;18267;52.234;7.444;2023-10-09T02:35:01;14.40;99.90
31661;DHT22;18267;52.234;7.444;2023-10-09T02:37:36;14.40;99.90
31661;DHT22;18267;52.234;7.444;2023-10-09T02:40:04;14.40;99.90
31661;DHT22;18267;52.234;7.444;2023-10-09T02:42:34;14.40;99.90
31661;DHT22;18267;52.234;7.444;2023-10-09T02:45:00;14.50;99.90
31661;DHT22;18267;52.234;7.444;2023-10-09T02:47:29;14.50;99.90
31661;DHT22;18267;52.234;7.444;2023-10-09T02:50:04;14.50;99.90
31661;DHT22;18267;52.234;7.444;2023-10-09T02:52:45;14.50;99.90
31661;DHT22;18267;52.234;7.444;2023-10-09T02:55:15;14.50;99.90
31661;DHT22;18267;52.234;7.444;2023-10-09T02:57:51;14.60;99.90
31661;DHT22;18267;52.234;7.444;2023-10-09T03:00:35;14.50;99.90
31661;DHT22;18267;52.234;7.444;2023-10-09T03:03:03;14.60;99.90
31661;DHT22;18267;52.234;7.444;2023-10-09T03:05:31;14.60;99.90
31661;DHT22;18267;52.234;7.444;2023-10-09T03:07:57;14.50;99.90
31661;DHT22;18267;52.234;7.444;2023-10-09T03:10:23;14.50;99.90
31661;DHT22;18267;52.234;7.444;2023-10-09T03:12:48;14.50;99.90
31661;DHT22;18267;52.234;7.444;2023-10-09T03:15:19;14.50;99.90
31661;DHT22;18267;52.234;7.444;2023-10-09T03:17:45;14.50;99.90
31661;DHT22;18267;52.234;7.444;2023-10-09T03:20:13;14.50;99.90
31661;DHT22;18267;52.234;7.444;2023-10-09T03:22:39;14.50;99.90
31661;DHT22;18267;52.234;7.444;2023-10-09T03:25:08;14.50;99.90
31661;DHT22;18267;52.234;7.444;2023-10-09T03:27:41;14.50;99.90
31661;DHT22;18267;52.234;7.444;2023-10-09T03:30:13;14.60;99.90
31661;DHT22;18267;52.234;7.444;2023-10-09T03:32:48;14.50;99.90
31661;DHT22;18267;52.234;7.444;2023-10-09T03:35:20;14.60;99.90
31661;DHT22;18267;52.234;7.444;2023-10-09T03:37:51;14.60;99.90
31661;DHT22;18267;52.234;7.444;2023-10-09T03:40:17;14.60;99.90
31661;DHT22;18267;52.234;7.444;2023-10-09T03:42:44;14.70;99.90
31661;DHT22;18267;52.234;7.444;2023-10-09T03:45:10;14.70;99.90
31661;DHT22;18267;52.234;7.444;2023-10-09T03:47:53;14.70;99.90
31661;DHT22;18267;52.234;7.444;2023-10-09T03:50:26;14.70;99.90
31661;DHT22;18267;52.234;7.444;2023-10-09T03:52:53;14.70;99.90
31661;DHT22;18267;52.234;7.444;2023-10-09T03:55:20;14.70;99.90
31661;DHT22;18267;52.234;7.444;2023-10-09T03:57:47;14.70;99.90
31661;DHT22;18267;52.234;7.444;2023-10-09T04:00:13;14.70;99.90
31661;DHT22;18267;52.234;7.444;2023-10-09T04:02:54;14.70;99.90
31661;DHT22;18267;52.234;7.444;2023-10-09T04:05:19;14.70;99.90
31661;DHT22;18267;52.234;7.444;2023-10-09T04:07:45;14.80;99.90
31661;DHT22;18267;52.234;7.444;2023-10-09T04:10:11;14.80;99.90
31661;DHT22;18267;52.234;7.444;2023-10-09T04:12:59;14.80;99.90
31661;DHT22;18267;52.234;7.444;2023-10-09T04:15:26;14.80;99.90
31661;DHT22;18267;52.234;7.444;2023-10-09T04:17:56;14.80;99.90
31661;DHT22;18267;52.234;7.444;2023-10-09T04:20:22;14.80;99.90
31661;DHT22;18267;52.234;7.444;2023-10-09T04:22:47;14.80;99.90
31661;DHT22;18267;52.234;7.444;2023-10-09T04:25:20;14.80;99.90
31661;DHT22;18267;52.234;7.444;2023-10-09T04:27:56;14.80;99.90
31661;DHT22;18267;52.234;7.444;2023-10-09T04:30:41;14.90;99.90
31661;DHT22;18267;52.234;7.444;2023-10-09T04:33:12;14.90;99.90
31661;DHT22;18267;52.234;7.444;2023-10-09T04:36:05;14.90;99.90
31661;DHT22;18267;52.234;7.444;2023-10-09T04:38:46;14.90;99.90
31661;DHT22;18267;52.234;7.444;2023-10-09T04:41:22;15.00;99.90
31661;DHT22;18267;52.234;7.444;2023-10-09T04:43:54;15.00;99.90
31661;DHT22;18267;52.234;7.444;2023-10-09T04:46:40;15.00;99.90
31661;DHT22;18267;52.234;7.444;2023-10-09T04:49:38;15.00;99.90
31661;DHT22;18267;52.234;7.444;2023-10-09T04:52:13;15.00;99.90
31661;DHT22;18267;52.234;7.444;2023-10-09T04:54:50;15.00;99.90
31661;DHT22;18267;52.234;7.444;2023-10-09T05:00:09;15.10;99.90
31661;DHT22;18267;52.234;7.444;2023-10-09T05:02:52;15.10;99.90
31661;DHT22;18267;52.234;7.444;2023-10-09T05:05:22;15.10;99.90
31661;DHT22;18267;52.234;7.444;2023-10-09T05:08:03;15.10;99.90
31661;DHT22;18267;52.234;7.444;2023-10-09T05:11:01;15.10;99.90
31661;DHT22;18267;52.234;7.444;2023-10-09T05:13:30;15.10;99.90
31661;DHT22;18267;52.234;7.444;2023-10-09T05:16:05;15.20;99.90
31661;DHT22;18267;52.234;7.444;2023-10-09T05:18:32;15.10;99.90
31661;DHT22;18267;52.234;7.444;2023-10-09T05:21:03;15.20;99.90
31661;DHT22;18267;52.234;7.444;2023-10-09T05:23:37;15.20;99.90
31661;DHT22;18267;52.234;7.444;2023-10-09T05:26:10;15.20;99.90
31661;DHT22;18267;52.234;7.444;2023-10-09T05:28:54;15.20;99.90
31661;DHT22;18267;52.234;7.444;2023-10-09T05:31:23;15.30;99.90
31661;DHT22;18267;52.234;7.444;2023-10-09T05:34:08;15.30;99.90
31661;DHT22;18267;52.234;7.444;2023-10-09T05:36:33;15.30;99.90
31661;DHT22;18267;52.234;7.444;2023-10-09T05:39:01;15.30;99.90
31661;DHT22;18267;52.234;7.444;2023-10-09T05:41:46;15.30;99.90
31661;DHT22;18267;52.234;7.444;2023-10-09T05:44:17;15.40;99.90
31661;DHT22;18267;52.234;7.444;2023-10-09T05:47:02;15.30;99.90
31661;DHT22;18267;52.234;7.444;2023-10-09T05:49:46;15.30;99.90
31661;DHT22;18267;52.234;7.444;2023-10-09T05:52:12;15.30;99.90
31661;DHT22;18267;52.234;7.444;2023-10-09T05:55:01;15.30;99.90
31661;DHT22;18267;52.234;7.444;2023-10-09T05:57:45;15.30;99.90
31661;DHT22;18267;52.234;7.444;2023-10-09T06:00:30;15.40;99.90
31661;DHT22;18267;52.234;7.444;2023-10-09T06:03:14;15.40;99.90
31661;DHT22;18267;52.234;7.444;2023-10-09T06:05:55;15.30;99.90
31661;DHT22;18267;52.234;7.444;2023-10-09T06:08:28;15.40;99.90
31661;DHT22;18267;52.234;7.444;2023-10-09T06:11:10;15.40;99.90
31661;DHT22;18267;52.234;7.444;2023-10-09T06:13:55;15.40;99.90
31661;DHT22;18267;52.234;7.444;2023-10-09T06:16:39;15.40;99.90
31661;DHT22;18267;52.234;7.444;2023-10-09T06:19:05;15.40;99.90
31661;DHT22;18267;52.234;7.444;2023-10-09T06:21:40;15.40;99.90
31661;DHT22;18267;52.234;7.444;2023-10-09T06:24:26;15.40;99.90
31661;DHT22;18267;52.234;7.444;2023-10-09T06:26:59;15.40;99.90
31661;DHT22;18267;52.234;7.444;2023-10-09T06:29:28;15.40;99.90
31661;DHT22;18267;52.234;7.444;2023-10-09T06:32:08;15.50;99.90
31661;DHT22;18267;52.234;7.444;2023-10-09T06:34:58;15.40;99.90
31661;DHT22;18267;52.234;7.444;2023-10-09T06:37:51;15.40;99.90
31661;DHT22;18267;52.234;7.444;2023-10-09T06:40:37;15.40;99.90
31661;DHT22;18267;52.234;7.444;2023-10-09T06:43:22;15.40;99.90
31661;DHT22;18267;52.234;7.444;2023-10-09T06:45:52;15.50;99.90
31661;DHT22;18267;52.234;7.444;2023-10-09T06:48:27;15.50;99.90
31661;DHT22;18267;52.234;7.444;2023-10-09T06:51:06;15.50;99.90
31661;DHT22;18267;52.234;7.444;2023-10-09T06:53:41;15.50;99.90
31661;DHT22;18267;52.234;7.444;2023-10-09T06:56:28;15.50;99.90
31661;DHT22;18267;52.234;7.444;2023-10-09T06:58:57;15.60;99.90
31661;DHT22;18267;52.234;7.444;2023-10-09T07:01:27;15.60;99.90
31661;DHT22;18267;52.234;7.444;2023-10-09T07:03:52;15.60;99.90
31661;DHT22;18267;52.234;7.444;2023-10-09T07:06:19;15.60;99.90
31661;DHT22;18267;52.234;7.444;2023-10-09T07:09:11;15.50;99.90
31661;DHT22;18267;52.234;7.444;2023-10-09T07:11:42;15.60;99.90
31661;DHT22;18267;52.234;7.444;2023-10-09T07:14:14;15.60;99.90
31661;DHT22;18267;52.234;7.444;2023-10-09T07:17:08;15.60;99.90
31661;DHT22;18267;52.234;7.444;2023-10-09T07:19:46;15.70;99.90
31661;DHT22;18267;52.234;7.444;2023-10-09T07:22:12;15.80;99.90
31661;DHT22;18267;52.234;7.444;2023-10-09T07:24:53;15.70;99.90
31661;DHT22;18267;52.234;7.444;2023-10-09T07:27:26;15.70;99.90
31661;DHT22;18267;52.234;7.444;2023-10-09T07:30:12;15.70;99.90
31661;DHT22;18267;52.234;7.444;2023-10-09T07:33:04;15.80;99.90
31661;DHT22;18267;52.234;7.444;2023-10-09T07:35:37;15.80;99.90
31661;DHT22;18267;52.234;7.444;2023-10-09T07:38:20;15.80;99.90
31661;DHT22;18267;52.234;7.444;2023-10-09T07:40:48;15.80;99.90
31661;DHT22;18267;52.234;7.444;2023-10-09T07:43:36;15.80;99.90
31661;DHT22;18267;52.234;7.444;2023-10-09T07:46:06;15.80;99.90
31661;DHT22;18267;52.234;7.444;2023-10-09T07:48:50;15.80;99.90
31661;DHT22;18267;52.234;7.444;2023-10-09T07:51:19;15.80;99.90
31661;DHT22;18267;52.234;7.444;2023-10-09T07:53:59;15.90;99.90
31661;DHT22;18267;52.234;7.444;2023-10-09T07:56:38;15.90;99.90
31661;DHT22;18267;52.234;7.444;2023-10-09T07:59:07;15.90;99.90
31661;DHT22;18267;52.234;7.444;2023-10-09T08:01:50;15.90;99.90
31661;DHT22;18267;52.234;7.444;2023-10-09T08:04:28;15.90;99.90
31661;DHT22;18267;52.234;7.444;2023-10-09T08:07:10;15.90;99.90
31661;DHT22;18267;52.234;7.444;2023-10-09T08:09:45;16.00;99.90
31661;DHT22;18267;52.234;7.444;2023-10-09T08:12:17;16.00;99.90
31661;DHT22;18267;52.234;7.444;2023-10-09T08:15:02;16.00;99.90
31661;DHT22;18267;52.234;7.444;2023-10-09T08:17:51;16.00;99.90
31661;DHT22;18267;52.234;7.444;2023-10-09T08:20:28;16.00;99.90
31661;DHT22;18267;52.234;7.444;2023-10-09T08:23:01;16.00;99.90
31661;DHT22;18267;52.234;7.444;2023-10-09T08:25:30;16.00;99.90
31661;DHT22;18267;52.234;7.444;2023-10-09T08:28:02;16.10;99.90
31661;DHT22;18267;52.234;7.444;2023-10-09T08:30:39;16.00;99.90
31661;DHT22;18267;52.234;7.444;2023-10-09T08:33:16;16.00;99.90
31661;DHT22;18267;52.234;7.444;2023-10-09T08:35:54;16.00;99.90
31661;DHT22;18267;52.234;7.444;2023-10-09T08:38:33;16.00;99.90
31661;DHT22;18267;52.234;7.444;2023-10-09T08:41:12;16.00;99.90
31661;DHT22;18267;52.234;7.444;2023-10-09T08:43:52;16.10;99.90
31661;DHT22;18267;52.234;7.444;2023-10-09T08:46:27;16.20;99.90
31661;DHT22;18267;52.234;7.444;2023-10-09T08:48:58;16.20;99.90
31661;DHT22;18267;52.234;7.444;2023-10-09T08:51:30;16.30;99.90
31661;DHT22;18267;52.234;7.444;2023-10-09T08:53:56;16.30;99.90
31661;DHT22;18267;52.234;7.444;2023-10-09T08:56:22;16.40;99.90
31661;DHT22;18267;52.234;7.444;2023-10-09T08:58:55;16.40;99.90
31661;DHT22;18267;52.234;7.444;2023-10-09T09:01:22;16.50;99.90
31661;DHT22;18267;52.234;7.444;2023-10-09T09:03:49;16.50;99.90
31661;DHT22;18267;52.234;7.444;2023-10-09T09:06:17;16.50;99.90
31661;DHT22;18267;52.234;7.444;2023-10-09T09:08:45;16.60;99.90
31661;DHT22;18267;52.234;7.444;2023-10-09T09:11:16;16.60;99.90
31661;DHT22;18267;52.234;7.444;2023-10-09T09:14:00;16.70;99.90
31661;DHT22;18267;52.234;7.444;2023-10-09T09:16:31;16.70;99.90
31661;DHT22;18267;52.234;7.444;2023-10-09T09:21:29;16.70;99.90
31661;DHT22;18267;52.234;7.444;2023-10-09T09:26:38;16.80;99.90
31661;DHT22;18267;52.234;7.444;2023-10-09T09:29:11;16.80;99.90
31661;DHT22;18267;52.234;7.444;2023-10-09T09:31:36;16.80;99.90
31661;DHT22;18267;52.234;7.444;2023-10-09T09:34:07;16.80;99.90
31661;DHT22;18267;52.234;7.444;2023-10-09T09:36:58;16.90;99.90
31661;DHT22;18267;52.234;7.444;2023-10-09T09:39:27;16.90;99.90
31661;DHT22;18267;52.234;7.444;2023-10-09T09:41:58;16.80;99.90
31661;DHT22;18267;52.234;7.444;2023-10-09T09:44:34;16.80;99.90
31661;DHT22;18267;52.234;7.444;2023-10-09T09:47:09;16.80;99.90
31661;DHT22;18267;52.234;7.444;2023-10-09T09:49:41;16.70;99.90
31661;DHT22;18267;52.234;7.444;2023-10-09T09:52:09;16.80;99.90
31661;DHT22;18267;52.234;7.444;2023-10-09T09:54:40;16.80;99.90
31661;DHT22;18267;52.234;7.444;2023-10-09T09:57:07;16.80;99.90
31661;DHT22;18267;52.234;7.444;2023-10-09T09:59:38;16.80;99.90
31661;DHT22;18267;52.234;7.444;2023-10-09T10:02:27;16.80;99.90
31661;DHT22;18267;52.234;7.444;2023-10-09T10:04:57;16.90;99.90
31661;DHT22;18267;52.234;7.444;2023-10-09T10:07:25;16.90;99.90
31661;DHT22;18267;52.234;7.444;2023-10-09T10:09:53;16.90;99.90
31661;DHT22;18267;52.234;7.444;2023-10-09T10:15:13;17.10;99.90
31661;DHT22;18267;52.234;7.444;2023-10-09T10:20:25;17.20;99.90
31661;DHT22;18267;52.234;7.444;2023-10-09T10:22:51;17.20;99.90
31661;DHT22;18267;52.234;7.444;2023-10-09T10:25:37;17.20;99.90
31661;DHT22;18267;52.234;7.444;2023-10-09T10:28:25;17.20;99.90
31661;DHT22;18267;52.234;7.444;2023-10-09T10:30:54;17.20;99.90
31661;DHT22;18267;52.234;7.444;2023-10-09T10:33:20;17.20;99.90
31661;DHT22;18267;52.234;7.444;2023-10-09T10:35:48;17.20;99.90
31661;DHT22;18267;52.234;7.444;2023-10-09T10:38:30;17.20;99.90
31661;DHT22;18267;52.234;7.444;2023-10-09T10:41:09;17.10;99.90
31661;DHT22;18267;52.234;7.444;2023-10-09T10:43:37;17.10;99.90
31661;DHT22;18267;52.234;7.444;2023-10-09T10:46:23;17.00;99.90
31661;DHT22;18267;52.234;7.444;2023-10-09T10:48:49;17.00;99.90
31661;DHT22;18267;52.234;7.444;2023-10-09T10:51:14;17.00;99.90
31661;DHT22;18267;52.234;7.444;2023-10-09T10:53:53;16.90;99.90
31661;DHT22;18267;52.234;7.444;2023-10-09T10:56:25;16.90;99.90
31661;DHT22;18267;52.234;7.444;2023-10-09T10:59:02;16.90;99.90
31661;DHT22;18267;52.234;7.444;2023-10-09T11:01:31;16.90;99.90
31661;DHT22;18267;52.234;7.444;2023-10-09T11:04:17;17.00;99.90
31661;DHT22;18267;52.234;7.444;2023-10-09T11:06:56;17.00;99.90
31661;DHT22;18267;52.234;7.444;2023-10-09T11:09:26;17.00;99.90
31661;DHT22;18267;52.234;7.444;2023-10-09T11:12:05;17.00;99.90
31661;DHT22;18267;52.234;7.444;2023-10-09T11:14:50;16.90;99.90
31661;DHT22;18267;52.234;7.444;2023-10-09T11:17:32;16.90;99.90
31661;DHT22;18267;52.234;7.444;2023-10-09T11:19:58;16.90;99.90
31661;DHT22;18267;52.234;7.444;2023-10-09T11:22:30;17.00;99.90
31661;DHT22;18267;52.234;7.444;2023-10-09T11:25:01;17.00;99.90
31661;DHT22;18267;52.234;7.444;2023-10-09T11:27:45;17.00;99.90
31661;DHT22;18267;52.234;7.444;2023-10-09T11:30:16;17.10;99.90
31661;DHT22;18267;52.234;7.444;2023-10-09T11:33:04;17.10;99.90
31661;DHT22;18267;52.234;7.444;2023-10-09T11:35:30;17.10;99.90
31661;DHT22;18267;52.234;7.444;2023-10-09T11:38:00;17.20;99.90
31661;DHT22;18267;52.234;7.444;2023-10-09T11:40:33;17.20;99.90
31661;DHT22;18267;52.234;7.444;2023-10-09T11:43:17;17.30;99.90
31661;DHT22;18267;52.234;7.444;2023-10-09T11:45:43;17.40;99.90
31661;DHT22;18267;52.234;7.444;2023-10-09T11:48:20;17.50;99.90
31661;DHT22;18267;52.234;7.444;2023-10-09T11:51:13;17.60;99.90
31661;DHT22;18267;52.234;7.444;2023-10-09T11:53:44;17.70;99.90
31661;DHT22;18267;52.234;7.444;2023-10-09T11:56:22;17.80;99.90
31661;DHT22;18267;52.234;7.444;2023-10-09T11:58:48;18.00;99.90
31661;DHT22;18267;52.234;7.444;2023-10-09T12:01:16;18.10;99.90
31661;DHT22;18267;52.234;7.444;2023-10-09T12:03:51;18.20;99.90
31661;DHT22;18267;52.234;7.444;2023-10-09T12:06:21;18.30;99.90
31661;DHT22;18267;52.234;7.444;2023-10-09T12:08:48;18.40;99.90
31661;DHT22;18267;52.234;7.444;2023-10-09T12:11:15;18.30;99.90
31661;DHT22;18267;52.234;7.444;2023-10-09T12:13:51;18.40;99.90
31661;DHT22;18267;52.234;7.444;2023-10-09T12:16:22;18.40;99.90
31661;DHT22;18267;52.234;7.444;2023-10-09T12:18:53;18.30;99.90
31661;DHT22;18267;52.234;7.444;2023-10-09T12:21:23;18.20;99.90
31661;DHT22;18267;52.234;7.444;2023-10-09T12:23:49;18.10;99.90
31661;DHT22;18267;52.234;7.444;2023-10-09T12:26:15;18.00;99.90
31661;DHT22;18267;52.234;7.444;2023-10-09T12:28:41;18.00;99.90
31661;DHT22;18267;52.234;7.444;2023-10-09T12:31:14;18.00;99.90
31661;DHT22;18267;52.234;7.444;2023-10-09T12:33:46;18.00;99.90
31661;DHT22;18267;52.234;7.444;2023-10-09T12:36:13;18.00;99.90
31661;DHT22;18267;52.234;7.444;2023-10-09T12:38:46;18.00;99.90
31661;DHT22;18267;52.234;7.444;2023-10-09T12:41:16;18.00;99.90
31661;DHT22;18267;52.234;7.444;2023-10-09T12:43:45;18.00;99.90
31661;DHT22;18267;52.234;7.444;2023-10-09T12:46:11;17.90;99.90
31661;DHT22;18267;52.234;7.444;2023-10-09T12:48:42;17.90;99.90
31661;DHT22;18267;52.234;7.444;2023-10-09T12:51:12;17.90;99.90
31661;DHT22;18267;52.234;7.444;2023-10-09T12:53:44;17.90;99.90
31661;DHT22;18267;52.234;7.444;2023-10-09T12:56:11;17.90;99.90
31661;DHT22;18267;52.234;7.444;2023-10-09T12:58:38;18.00;99.90
31661;DHT22;18267;52.234;7.444;2023-10-09T13:01:04;18.10;99.90
31661;DHT22;18267;52.234;7.444;2023-10-09T13:03:37;18.10;99.90
31661;DHT22;18267;52.234;7.444;2023-10-09T13:06:05;18.10;99.90
31661;DHT22;18267;52.234;7.444;2023-10-09T13:08:37;18.10;99.90
31661;DHT22;18267;52.234;7.444;2023-10-09T13:11:07;18.10;99.90
31661;DHT22;18267;52.234;7.444;2023-10-09T13:13:40;18.10;99.90
31661;DHT22;18267;52.234;7.444;2023-10-09T13:16:23;18.10;99.90
31661;DHT22;18267;52.234;7.444;2023-10-09T13:18:56;18.10;99.90
31661;DHT22;18267;52.234;7.444;2023-10-09T13:21:25;18.10;99.90
31661;DHT22;18267;52.234;7.444;2023-10-09T13:23:58;18.20;99.90
31661;DHT22;18267;52.234;7.444;2023-10-09T13:26:25;18.20;99.90
31661;DHT22;18267;52.234;7.444;2023-10-09T13:28:55;18.30;99.90
31661;DHT22;18267;52.234;7.444;2023-10-09T13:31:22;18.40;99.90
31661;DHT22;18267;52.234;7.444;2023-10-09T13:33:51;18.40;99.90
31661;DHT22;18267;52.234;7.444;2023-10-09T13:36:21;18.40;99.90
31661;DHT22;18267;52.234;7.444;2023-10-09T13:38:54;18.30;99.90
31661;DHT22;18267;52.234;7.444;2023-10-09T13:41:21;18.30;99.90
31661;DHT22;18267;52.234;7.444;2023-10-09T13:43:46;18.30;99.90
31661;DHT22;18267;52.234;7.444;2023-10-09T13:46:12;18.30;99.90
31661;DHT22;18267;52.234;7.444;2023-10-09T13:48:41;18.30;99.90
31661;DHT22;18267;52.234;7.444;2023-10-09T13:51:12;18.30;99.90
31661;DHT22;18267;52.234;7.444;2023-10-09T13:53:47;18.20;99.90
31661;DHT22;18267;52.234;7.444;2023-10-09T13:56:20;18.20;99.90
31661;DHT22;18267;52.234;7.444;2023-10-09T13:58:50;18.20;99.90
31661;DHT22;18267;52.234;7.444;2023-10-09T14:01:17;18.10;99.90
31661;DHT22;18267;52.234;7.444;2023-10-09T14:03:53;18.10;99.90
31661;DHT22;18267;52.234;7.444;2023-10-09T14:06:19;18.10;99.90
31661;DHT22;18267;52.234;7.444;2023-10-09T14:09:02;18.10;99.90
31661;DHT22;18267;52.234;7.444;2023-10-09T14:11:34;18.10;99.90
31661;DHT22;18267;52.234;7.444;2023-10-09T14:14:09;18.10;99.90
31661;DHT22;18267;52.234;7.444;2023-10-09T14:16:38;18.00;99.90
31661;DHT22;18267;52.234;7.444;2023-10-09T14:19:08;18.10;99.90
31661;DHT22;18267;52.234;7.444;2023-10-09T14:21:39;18.10;99.90
31661;DHT22;18267;52.234;7.444;2023-10-09T14:24:06;18.10;99.90
31661;DHT22;18267;52.234;7.444;2023-10-09T14:26:41;18.10;99.90
31661;DHT22;18267;52.234;7.444;2023-10-09T14:29:07;18.10;99.90
31661;DHT22;18267;52.234;7.444;2023-10-09T14:31:33;18.10;99.90
31661;DHT22;18267;52.234;7.444;2023-10-09T14:34:04;18.10;99.90
31661;DHT22;18267;52.234;7.444;2023-10-09T14:36:30;18.10;99.90
31661;DHT22;18267;52.234;7.444;2023-10-09T14:39:00;18.00;99.90
31661;DHT22;18267;52.234;7.444;2023-10-09T14:41:26;18.00;99.90
31661;DHT22;18267;52.234;7.444;2023-10-09T14:43:53;18.00;99.90
31661;DHT22;18267;52.234;7.444;2023-10-09T14:46:19;18.00;99.90
31661;DHT22;18267;52.234;7.444;2023-10-09T14:48:55;18.00;99.90
31661;DHT22;18267;52.234;7.444;2023-10-09T14:51:22;18.00;99.90
31661;DHT22;18267;52.234;7.444;2023-10-09T14:53:56;18.00;99.90
31661;DHT22;18267;52.234;7.444;2023-10-09T14:56:24;17.90;99.90
31661;DHT22;18267;52.234;7.444;2023-10-09T14:58:55;18.00;99.90
31661;DHT22;18267;52.234;7.444;2023-10-09T15:01:21;18.00;99.90
31661;DHT22;18267;52.234;7.444;2023-10-09T15:03:50;18.00;99.90
31661;DHT22;18267;52.234;7.444;2023-10-09T15:06:18;18.00;99.90
31661;DHT22;18267;52.234;7.444;2023-10-09T15:08:44;18.00;99.90
31661;DHT22;18267;52.234;7.444;2023-10-09T15:11:10;18.00;99.90
31661;DHT22;18267;52.234;7.444;2023-10-09T15:13:36;17.90;99.90
31661;DHT22;18267;52.234;7.444;2023-10-09T15:16:04;17.90;99.90
31661;DHT22;18267;52.234;7.444;2023-10-09T15:18:30;17.90;99.90
31661;DHT22;18267;52.234;7.444;2023-10-09T15:20:58;17.80;99.90
31661;DHT22;18267;52.234;7.444;2023-10-09T15:23:25;17.90;99.90
31661;DHT22;18267;52.234;7.444;2023-10-09T15:25:50;17.90;99.90
31661;DHT22;18267;52.234;7.444;2023-10-09T15:28:19;17.90;99.90
31661;DHT22;18267;52.234;7.444;2023-10-09T15:30:45;17.90;99.90
31661;DHT22;18267;52.234;7.444;2023-10-09T15:33:14;17.80;99.90
31661;DHT22;18267;52.234;7.444;2023-10-09T15:35:43;17.90;99.90
31661;DHT22;18267;52.234;7.444;2023-10-09T15:38:08;17.80;99.90
31661;DHT22;18267;52.234;7.444;2023-10-09T15:40:38;17.90;99.90
31661;DHT22;18267;52.234;7.444;2023-10-09T15:43:04;17.90;99.90
31661;DHT22;18267;52.234;7.444;2023-10-09T15:45:30;17.90;99.90
31661;DHT22;18267;52.234;7.444;2023-10-09T15:47:57;18.00;99.90
31661;DHT22;18267;52.234;7.444;2023-10-09T15:50:24;18.00;99.90
31661;DHT22;18267;52.234;7.444;2023-10-09T15:52:54;18.00;99.90
31661;DHT22;18267;52.234;7.444;2023-10-09T15:55:20;17.90;99.90
31661;DHT22;18267;52.234;7.444;2023-10-09T15:57:50;17.90;99.90
31661;DHT22;18267;52.234;7.444;2023-10-09T16:00:17;17.90;99.90
31661;DHT22;18267;52.234;7.444;2023-10-09T16:02:47;17.90;99.90
31661;DHT22;18267;52.234;7.444;2023-10-09T16:05:14;17.80;99.90
31661;DHT22;18267;52.234;7.444;2023-10-09T16:07:42;17.80;99.90
31661;DHT22;18267;52.234;7.444;2023-10-09T16:10:09;17.80;99.90
31661;DHT22;18267;52.234;7.444;2023-10-09T16:12:37;17.80;99.90
31661;DHT22;18267;52.234;7.444;2023-10-09T16:15:04;17.70;99.90
31661;DHT22;18267;52.234;7.444;2023-10-09T16:17:34;17.80;99.90
31661;DHT22;18267;52.234;7.444;2023-10-09T16:20:00;17.70;99.90